Time;durP1;ratioP1;P1;durP2;ratioP2;P2;SDS_P1;SDS_P2;PMS_P1;PMS_P2;Temp;Humidity;BMP_temperature;BMP_pressure;BME280_temperature;BME280_humidity;BME280_pressure;Samples;Min_cycle;Max_cycle;Signal;HPM_P1;HPM_P2
2022/06/10 00:01:04;;;;;;;;;4.67;3.67;;;;;;;;5084048;27;45278;-74
2022/06/10 00:03:30;;;;;;;;;5.00;4.00;;;;;;;;5091513;27;45469;-74
2022/06/10 00:06:00;;;;;;;;;4.00;4.00;;;;;;;;5089415;27;47075;-74
2022/06/10 00:08:27;;;;;;;;;5.00;3.67;;;;;;;;5086826;27;45445;-74
2022/06/10 00:10:52;;;;;;;;;6.00;4.00;;;;;;;;5081725;27;45335;-74
2022/06/10 00:13:19;;;;;;;;;5.00;5.00;;;;;;;;5084662;27;45343;-74
2022/06/10 00:15:44;;;;;;;;;8.00;8.00;;;;;;;;5091685;27;47202;-74
2022/06/10 00:18:10;;;;;;;;;7.00;6.00;;;;;;;;5085438;27;45455;-74
2022/06/10 00:20:35;;;;;;;;;3.00;3.00;;;;;;;;5081725;27;45418;-74
2022/06/10 00:23:01;;;;;;;;;4.00;4.00;;;;;;;;5089326;27;45671;-74
2022/06/10 00:25:26;;;;;;;;;4.67;3.33;;;;;;;;5084494;27;46926;-74
2022/06/10 00:27:52;;;;;;;;;3.00;3.00;;;;;;;;5091979;27;45309;-74
2022/06/10 00:30:19;;;;;;;;;4.67;4.00;;;;;;;;5085803;27;45166;-74
2022/06/10 00:32:44;;;;;;;;;3.33;3.33;;;;;;;;5094625;27;46195;-74
2022/06/10 00:35:09;;;;;;;;;6.67;4.67;;;;;;;;5089528;27;45358;-74
2022/06/10 00:37:35;;;;;;;;;5.00;4.00;;;;;;;;5095715;27;45368;-74
2022/06/10 00:40:00;;;;;;;;;5.33;5.00;;;;;;;;5085489;27;45441;-74
2022/06/10 00:42:25;;;;;;;;;4.67;3.00;;;;;;;;5082989;27;46165;-74
2022/06/10 00:44:52;;;;;;;;;7.00;4.67;;;;;;;;5090947;27;46874;-74
2022/06/10 00:47:17;;;;;;;;;4.00;4.00;;;;;;;;5099267;27;45302;-74
2022/06/10 00:49:45;;;;;;;;;5.67;5.00;;;;;;;;5083493;27;45285;-74
2022/06/10 00:52:22;;;;;;;;;3.67;3.67;;;;;;;;5095937;27;46126;-74
2022/06/10 00:54:49;;;;;;;;;3.33;3.00;;;;;;;;5084741;27;47598;-74
2022/06/10 00:57:17;;;;;;;;;5.67;2.67;;;;;;;;5098794;27;45330;-74
2022/06/10 00:59:44;;;;;;;;;6.67;3.33;;;;;;;;5083917;27;45469;-74
2022/06/10 01:02:15;;;;;;;;;3.33;3.33;;;;;;;;5090481;27;46492;-74
2022/06/10 01:04:41;;;;;;;;;5.00;3.00;;;;;;;;5089517;27;47368;-74
2022/06/10 01:07:07;;;;;;;;;5.00;4.00;;;;;;;;5096033;27;45331;-75
2022/06/10 01:09:32;;;;;;;;;3.33;3.33;;;;;;;;5093290;27;45358;-74
2022/06/10 01:12:00;;;;;;;;;3.33;3.33;;;;;;;;5097722;27;45480;-75
2022/06/10 01:14:28;;;;;;;;;3.00;2.00;;;;;;;;5082889;27;45484;-74
2022/06/10 01:17:00;;;;;;;;;4.00;3.00;;;;;;;;5078609;27;45293;-74
2022/06/10 01:19:43;;;;;;;;;6.00;5.00;;;;;;;;5082265;27;45216;-74
2022/06/10 01:22:18;;;;;;;;;4.00;4.00;;;;;;;;5082169;27;45718;-74
2022/06/10 01:25:06;;;;;;;;;3.33;3.33;;;;;;;;5083333;27;48107;-74
2022/06/10 01:27:49;;;;;;;;;4.67;3.00;;;;;;;;5083742;27;45253;-74
2022/06/10 01:30:27;;;;;;;;;4.33;3.67;;;;;;;;5091859;27;45469;-74
2022/06/10 01:33:00;;;;;;;;;4.00;4.00;;;;;;;;5094011;27;47347;-74
2022/06/10 01:35:26;;;;;;;;;6.67;3.00;;;;;;;;5087134;27;45559;-74
2022/06/10 01:38:06;;;;;;;;;4.67;3.00;;;;;;;;5092377;27;45574;-74
2022/06/10 01:40:44;;;;;;;;;2.67;2.67;;;;;;;;5090863;27;45299;-74
2022/06/10 01:43:28;;;;;;;;;3.00;3.00;;;;;;;;5085509;27;45485;-74
2022/06/10 01:45:54;;;;;;;;;3.67;3.00;;;;;;;;5088167;27;46198;-74
2022/06/10 01:48:29;;;;;;;;;4.33;3.33;;;;;;;;5094075;27;45433;-74
2022/06/10 01:50:57;;;;;;;;;3.67;2.67;;;;;;;;5091397;27;45448;-74
2022/06/10 01:53:37;;;;;;;;;1.67;1.67;;;;;;;;5093365;27;45424;-74
2022/06/10 01:56:15;;;;;;;;;3.67;3.67;;;;;;;;5094331;27;45358;-74
2022/06/10 01:58:44;;;;;;;;;3.00;3.00;;;;;;;;5093287;27;45439;-74
2022/06/10 02:01:16;;;;;;;;;3.33;3.33;;;;;;;;5094553;27;45612;-74
2022/06/10 02:03:46;;;;;;;;;4.67;4.67;;;;;;;;5094490;27;45618;-74
2022/06/10 02:06:20;;;;;;;;;3.67;3.67;;;;;;;;5089943;27;45329;-74
2022/06/10 02:08:48;;;;;;;;;4.67;4.00;;;;;;;;5090808;27;45484;-74
2022/06/10 02:11:14;;;;;;;;;3.67;2.33;;;;;;;;5087513;27;45298;-75
2022/06/10 02:14:02;;;;;;;;;2.33;2.33;;;;;;;;5091728;27;47607;-74
2022/06/10 02:16:30;;;;;;;;;6.00;3.67;;;;;;;;5087752;27;45365;-74
2022/06/10 02:19:16;;;;;;;;;3.00;3.00;;;;;;;;5093662;27;45264;-74
2022/06/10 02:21:48;;;;;;;;;3.00;3.00;;;;;;;;5082356;27;45369;-74
2022/06/10 02:24:16;;;;;;;;;5.67;3.00;;;;;;;;5087685;27;45521;-74
2022/06/10 02:26:42;;;;;;;;;4.00;3.67;;;;;;;;5090541;27;47226;-74
2022/06/10 02:29:11;;;;;;;;;3.00;3.00;;;;;;;;5092960;27;45413;-74
2022/06/10 02:31:52;;;;;;;;;4.00;4.00;;;;;;;;5087086;27;45277;-74
2022/06/10 02:34:17;;;;;;;;;4.00;4.00;;;;;;;;5090050;27;45614;-75
2022/06/10 02:36:42;;;;;;;;;4.00;2.67;;;;;;;;5082745;27;46107;-74
2022/06/10 02:39:13;;;;;;;;;2.00;2.00;;;;;;;;5087088;27;45433;-74
2022/06/10 02:41:50;;;;;;;;;3.33;3.00;;;;;;;;5083142;27;45170;-73
2022/06/10 02:44:27;;;;;;;;;7.33;3.33;;;;;;;;5088368;27;45561;-74
2022/06/10 02:47:00;;;;;;;;;3.00;3.00;;;;;;;;5086797;27;45468;-74
2022/06/10 02:49:25;;;;;;;;;5.00;3.00;;;;;;;;5088447;27;45539;-74
2022/06/10 02:51:51;;;;;;;;;4.33;4.00;;;;;;;;5091545;27;45207;-75
2022/06/10 02:54:20;;;;;;;;;7.00;4.67;;;;;;;;5091157;27;47096;-74
2022/06/10 02:56:45;;;;;;;;;5.67;4.00;;;;;;;;5090849;27;45335;-74
2022/06/10 03:01:55;;;;;;;;;5.00;3.33;;;;;;;;5096503;27;45485;-74
2022/06/10 03:04:38;;;;;;;;;5.00;4.00;;;;;;;;5092172;27;46111;-74
2022/06/10 03:07:04;;;;;;;;;4.00;3.67;;;;;;;;5088269;27;47714;-74
2022/06/10 03:09:38;;;;;;;;;4.00;4.00;;;;;;;;5085215;27;45323;-73
2022/06/10 03:12:06;;;;;;;;;4.00;4.00;;;;;;;;5082860;27;45317;-74
2022/06/10 03:14:48;;;;;;;;;4.67;4.00;;;;;;;;5084335;27;45462;-74
2022/06/10 03:17:22;;;;;;;;;4.00;4.00;;;;;;;;5092235;27;45302;-74
2022/06/10 03:20:07;;;;;;;;;3.00;3.00;;;;;;;;5084775;27;45323;-74
2022/06/10 03:22:35;;;;;;;;;6.00;3.33;;;;;;;;5094139;27;45424;-74
2022/06/10 03:25:04;;;;;;;;;6.00;4.00;;;;;;;;5084333;27;46084;-74
2022/06/10 03:27:48;;;;;;;;;6.67;4.00;;;;;;;;5087839;27;46980;-74
2022/06/10 03:30:17;;;;;;;;;7.00;4.00;;;;;;;;5096620;27;45408;-74
2022/06/10 03:32:52;;;;;;;;;3.00;3.00;;;;;;;;5093906;27;45373;-74
2022/06/10 03:35:37;;;;;;;;;4.67;4.00;;;;;;;;5083600;27;45532;-74
2022/06/10 03:38:03;;;;;;;;;7.33;3.33;;;;;;;;5087346;27;47185;-74
2022/06/10 03:40:29;;;;;;;;;4.67;3.00;;;;;;;;5093068;27;45339;-74
2022/06/10 03:42:55;;;;;;;;;3.00;3.00;;;;;;;;5094175;27;45455;-75
2022/06/10 03:45:40;;;;;;;;;5.00;5.00;;;;;;;;5083304;27;45415;-74
2022/06/10 03:48:06;;;;;;;;;3.00;3.00;;;;;;;;5095775;27;47041;-74
2022/06/10 03:50:34;;;;;;;;;4.00;4.00;;;;;;;;5081444;27;45184;-74
2022/06/10 03:52:59;;;;;;;;;4.67;4.67;;;;;;;;5085680;27;46973;-74
2022/06/10 03:55:25;;;;;;;;;5.00;4.00;;;;;;;;5083140;27;46897;-74
2022/06/10 03:57:50;;;;;;;;;4.00;4.00;;;;;;;;5081183;27;46063;-74
2022/06/10 04:00:18;;;;;;;;;6.00;3.00;;;;;;;;5093305;27;45726;-75
2022/06/10 04:02:43;;;;;;;;;7.00;4.67;;;;;;;;5095505;27;45397;-77
2022/06/10 04:05:10;;;;;;;;;2.00;2.00;;;;;;;;5087792;27;45480;-78
2022/06/10 04:07:36;;;;;;;;;4.00;2.67;;;;;;;;5095487;27;45359;-77
2022/06/10 04:10:01;;;;;;;;;6.00;4.00;;;;;;;;5080124;27;45337;-75
2022/06/10 04:12:26;;;;;;;;;5.67;5.00;;;;;;;;5086166;27;45355;-75
2022/06/10 04:14:52;;;;;;;;;6.00;4.00;;;;;;;;5082906;27;45227;-75
2022/06/10 04:17:17;;;;;;;;;9.00;4.67;;;;;;;;5093866;27;45508;-75
2022/06/10 04:19:43;;;;;;;;;4.00;2.00;;;;;;;;5091089;27;45224;-77
2022/06/10 04:22:08;;;;;;;;;5.33;3.00;;;;;;;;5090640;27;45525;-75
2022/06/10 04:24:33;;;;;;;;;5.00;4.00;;;;;;;;5088942;27;46131;-75
2022/06/10 04:26:58;;;;;;;;;4.67;4.00;;;;;;;;5091719;27;46267;-75
2022/06/10 04:29:23;;;;;;;;;4.67;4.33;;;;;;;;5088821;27;45330;-75
2022/06/10 04:31:48;;;;;;;;;5.00;5.00;;;;;;;;5088033;27;45369;-75
2022/06/10 04:34:15;;;;;;;;;4.00;4.00;;;;;;;;5087426;27;45463;-74
2022/06/10 04:36:40;;;;;;;;;3.00;3.00;;;;;;;;5089073;27;47141;-74
2022/06/10 04:39:05;;;;;;;;;3.33;3.33;;;;;;;;5092919;27;45409;-74
2022/06/10 04:41:31;;;;;;;;;5.33;3.67;;;;;;;;5093595;27;45393;-74
2022/06/10 04:43:56;;;;;;;;;4.00;4.00;;;;;;;;5088468;27;45358;-74
2022/06/10 04:46:24;;;;;;;;;5.00;3.00;;;;;;;;5093661;27;46496;-75
2022/06/10 04:48:49;;;;;;;;;5.00;4.00;;;;;;;;5088416;27;45312;-74
2022/06/10 04:51:15;;;;;;;;;4.67;4.67;;;;;;;;5085010;27;45337;-76
2022/06/10 04:53:40;;;;;;;;;5.00;4.00;;;;;;;;5091532;27;45524;-74
2022/06/10 04:56:05;;;;;;;;;5.67;4.00;;;;;;;;5092142;27;47230;-74
2022/06/10 04:58:30;;;;;;;;;5.33;4.33;;;;;;;;5091649;27;45440;-74
2022/06/10 05:00:56;;;;;;;;;2.67;2.67;;;;;;;;5091545;27;45199;-75
2022/06/10 05:03:21;;;;;;;;;5.00;3.67;;;;;;;;5091904;27;45136;-75
2022/06/10 05:05:46;;;;;;;;;4.67;4.00;;;;;;;;5097380;27;47127;-74
2022/06/10 05:08:13;;;;;;;;;6.67;5.33;;;;;;;;5090212;27;47549;-74
2022/06/10 05:10:38;;;;;;;;;7.00;3.33;;;;;;;;5084744;27;45275;-74
2022/06/10 05:13:03;;;;;;;;;6.00;4.33;;;;;;;;5092744;27;45390;-74
2022/06/10 05:15:28;;;;;;;;;3.00;3.00;;;;;;;;5088898;27;48451;-74
2022/06/10 05:17:56;;;;;;;;;4.67;3.00;;;;;;;;5082933;27;45270;-74
2022/06/10 05:20:23;;;;;;;;;4.67;2.33;;;;;;;;5084877;27;45409;-74
2022/06/10 05:22:48;;;;;;;;;7.33;5.00;;;;;;;;5085559;27;45334;-74
2022/06/10 05:25:14;;;;;;;;;3.33;3.00;;;;;;;;5086732;27;47010;-74
2022/06/10 05:27:39;;;;;;;;;4.33;4.00;;;;;;;;5091595;27;45342;-74
2022/06/10 05:30:05;;;;;;;;;3.33;3.33;;;;;;;;5096532;27;45295;-75
2022/06/10 05:32:31;;;;;;;;;7.00;5.00;;;;;;;;5100609;27;45240;-75
2022/06/10 05:34:56;;;;;;;;;3.33;3.33;;;;;;;;5096803;27;45390;-75
2022/06/10 05:37:23;;;;;;;;;3.00;3.00;;;;;;;;5100748;27;45250;-75
2022/06/10 05:39:48;;;;;;;;;7.00;3.33;;;;;;;;5096311;27;45567;-76
2022/06/10 05:42:14;;;;;;;;;3.00;3.00;;;;;;;;5101988;27;45224;-75
2022/06/10 05:44:41;;;;;;;;;5.00;3.00;;;;;;;;5096390;27;45388;-74
2022/06/10 05:47:11;;;;;;;;;4.00;4.00;;;;;;;;5102411;27;45499;-75
2022/06/10 05:49:37;;;;;;;;;7.67;4.00;;;;;;;;5091237;27;45268;-74
2022/06/10 05:52:05;;;;;;;;;7.00;4.33;;;;;;;;5096869;27;45250;-74
2022/06/10 05:54:30;;;;;;;;;3.00;3.00;;;;;;;;5093602;27;47355;-75
2022/06/10 05:56:55;;;;;;;;;4.00;4.00;;;;;;;;5097115;27;45237;-74
2022/06/10 05:59:22;;;;;;;;;2.00;2.00;;;;;;;;5089187;27;45227;-74
2022/06/10 06:01:47;;;;;;;;;3.00;3.00;;;;;;;;5099844;27;45446;-74
2022/06/10 06:04:13;;;;;;;;;6.00;4.00;;;;;;;;5087606;27;45383;-74
2022/06/10 06:06:39;;;;;;;;;4.00;3.00;;;;;;;;5083251;27;46080;-74
2022/06/10 06:09:04;;;;;;;;;6.00;4.33;;;;;;;;5083689;27;44794;-74
2022/06/10 06:11:30;;;;;;;;;2.33;2.00;;;;;;;;5091593;27;45480;-74
2022/06/10 06:13:57;;;;;;;;;4.00;3.00;;;;;;;;5090508;27;45547;-74
2022/06/10 06:16:23;;;;;;;;;7.00;3.67;;;;;;;;5094255;27;45358;-74
2022/06/10 06:18:50;;;;;;;;;3.33;3.33;;;;;;;;5084569;27;45326;-74
2022/06/10 06:21:15;;;;;;;;;4.00;4.00;;;;;;;;5092238;27;45252;-75
2022/06/10 06:23:41;;;;;;;;;5.33;4.00;;;;;;;;5095155;27;45445;-74
2022/06/10 06:26:06;;;;;;;;;4.00;3.00;;;;;;;;5100027;27;45953;-74
2022/06/10 06:28:31;;;;;;;;;7.33;4.67;;;;;;;;5086488;27;45504;-74
2022/06/10 06:30:57;;;;;;;;;4.00;2.33;;;;;;;;5092138;27;45268;-74
2022/06/10 06:33:22;;;;;;;;;6.00;2.33;;;;;;;;5097413;27;45352;-74
2022/06/10 06:35:51;;;;;;;;;3.00;2.00;;;;;;;;5083858;27;45291;-74
2022/06/10 06:38:17;;;;;;;;;6.33;3.00;;;;;;;;5085954;27;45429;-74
2022/06/10 06:40:43;;;;;;;;;8.00;3.00;;;;;;;;5088860;27;45622;-74
2022/06/10 06:43:09;;;;;;;;;3.33;2.33;;;;;;;;5089380;27;46104;-75
2022/06/10 06:45:34;;;;;;;;;3.67;2.67;;;;;;;;5095395;27;45294;-75
2022/06/10 06:48:00;;;;;;;;;3.67;2.00;;;;;;;;5087565;27;45371;-76
2022/06/10 06:50:26;;;;;;;;;3.00;3.00;;;;;;;;5094736;27;46962;-76
2022/06/10 06:52:52;;;;;;;;;4.00;2.67;;;;;;;;5094443;27;45774;-76
2022/06/10 06:55:17;;;;;;;;;4.00;2.33;;;;;;;;5086576;27;45447;-74
2022/06/10 06:57:44;;;;;;;;;4.00;4.00;;;;;;;;5097271;27;45296;-76
2022/06/10 07:00:11;;;;;;;;;3.00;3.00;;;;;;;;5090880;27;45482;-73
2022/06/10 07:02:37;;;;;;;;;2.67;2.67;;;;;;;;5096208;27;46152;-69
2022/06/10 07:05:03;;;;;;;;;4.00;2.00;;;;;;;;5096985;27;45266;-69
2022/06/10 07:07:28;;;;;;;;;2.33;2.33;;;;;;;;5086911;27;45348;-69
2022/06/10 07:09:53;;;;;;;;;2.33;2.00;;;;;;;;5082693;27;45402;-69
2022/06/10 07:12:19;;;;;;;;;1.00;1.00;;;;;;;;5090575;27;45907;-68
2022/06/10 07:14:44;;;;;;;;;3.00;2.00;;;;;;;;5084495;27;45256;-68
2022/06/10 07:17:11;;;;;;;;;1.25;1.25;;;;;;;;5091240;27;45287;-69
2022/06/10 07:19:36;;;;;;;;;4.00;2.75;;;;;;;;5088568;27;46528;-69
2022/06/10 07:22:01;;;;;;;;;2.50;2.50;;;;;;;;5090938;27;45433;-69
2022/06/10 07:24:27;;;;;;;;;2.00;2.00;;;;;;;;5092831;27;45414;-70
2022/06/10 07:26:52;;;;;;;;;2.00;2.00;;;;;;;;5081400;27;45403;-70
2022/06/10 07:29:17;;;;;;;;;3.00;3.00;;;;;;;;5089745;27;45350;-69
2022/06/10 07:31:44;;;;;;;;;3.00;2.00;;;;;;;;5090216;27;45627;-69
2022/06/10 07:34:10;;;;;;;;;3.00;2.00;;;;;;;;5094589;27;45430;-69
2022/06/10 07:36:35;;;;;;;;;1.50;1.50;;;;;;;;5098918;27;45449;-69
2022/06/10 07:39:01;;;;;;;;;2.50;1.00;;;;;;;;5091699;27;45344;-69
2022/06/10 07:44:10;;;;;;;;;3.00;0.75;;;;;;;;5096933;27;45363;-69
2022/06/10 07:52:00;;;;;;;;;2.00;1.00;;;;;;;;5453113;22;46087;-68
2022/06/10 07:54:26;;;;;;;;;2.75;1.75;;;;;;;;5014413;28;45248;-68
2022/06/10 07:56:51;;;;;;;;;0.00;0.00;;;;;;;;5017772;28;45699;-68
2022/06/10 07:59:17;;;;;;;;;3.00;1.00;;;;;;;;5005609;28;45641;-68
2022/06/10 08:01:42;;;;;;;;;1.00;1.00;;;;;;;;5011763;28;45406;-68
2022/06/10 08:04:08;;;;;;;;;1.75;1.75;;;;;;;;5014004;28;45443;-68
2022/06/10 08:06:34;;;;;;;;;1.50;1.50;;;;;;;;5016896;28;45272;-67
2022/06/10 08:09:00;;;;;;;;;3.00;2.00;;;;;;;;5015914;28;46582;-68
2022/06/10 08:11:25;;;;;;;;;1.25;1.25;;;;;;;;5015032;28;46345;-67
2022/06/10 08:13:50;;;;;;;;;1.00;1.00;;;;;;;;5017220;28;45452;-68
2022/06/10 08:16:18;;;;;;;;;1.25;1.25;;;;;;;;5014847;28;45413;-68
2022/06/10 08:18:44;;;;;;;;;2.75;2.00;;;;;;;;5016956;28;45557;-68
2022/06/10 08:23:53;;;;;;;;;2.60;1.80;;;;;;;;5005471;28;45206;-68
2022/06/10 08:26:20;;;;;;;;;4.50;2.00;;;;;;;;5014570;28;45232;-68
2022/06/10 08:28:46;;;;;;;;;1.25;1.25;;;;;;;;5015677;28;45402;-68
2022/06/10 08:31:12;;;;;;;;;1.00;1.00;;;;;;;;5014675;28;45213;-68
2022/06/10 08:33:37;;;;;;;;;1.25;0.25;;;;;;;;5017381;28;45474;-69
2022/06/10 08:36:03;;;;;;;;;1.75;0.75;;;;;;;;5015250;28;45352;-69
2022/06/10 08:38:29;;;;;;;;;0.50;0.50;;;;;;;;5017750;28;45497;-69
2022/06/10 08:40:58;;;;;;;;;2.00;0.00;;;;;;;;5010903;28;46305;-69
2022/06/10 08:43:27;;;;;;;;;0.40;0.40;;;;;;;;5018393;28;45349;-69
2022/06/10 08:46:05;;;;;;;;;0.00;0.00;;;;;;;;5013777;28;45450;-69
2022/06/10 08:48:53;;;;;;;;;2.00;0.00;;;;;;;;5017081;28;45493;-69
2022/06/10 08:51:44;;;;;;;;;0.60;0.60;;;;;;;;5014434;28;46403;-69
2022/06/10 08:54:19;;;;;;;;;2.40;2.40;;;;;;;;5011794;28;45268;-70
2022/06/10 08:56:55;;;;;;;;;2.00;1.00;;;;;;;;5016551;28;45311;-70
2022/06/10 08:59:26;;;;;;;;;1.00;1.00;;;;;;;;5014130;28;45445;-70
2022/06/10 09:01:55;;;;;;;;;1.80;0.80;;;;;;;;5016795;28;45192;-70
2022/06/10 09:04:26;;;;;;;;;0.00;0.00;;;;;;;;5014585;28;45399;-69
2022/06/10 09:06:54;;;;;;;;;0.60;0.60;;;;;;;;5033018;28;45253;-69
2022/06/10 09:09:22;;;;;;;;;0.20;0.20;;;;;;;;5015405;28;45482;-69
2022/06/10 09:11:47;;;;;;;;;0.80;0.80;;;;;;;;5018419;28;46368;-69
2022/06/10 09:14:17;;;;;;;;;1.00;1.00;;;;;;;;5014897;28;45391;-69
2022/06/10 09:16:53;;;;;;;;;1.00;1.00;;;;;;;;5017122;28;45177;-69
2022/06/10 09:19:22;;;;;;;;;0.20;0.20;;;;;;;;5012052;28;45463;-69
2022/06/10 09:21:53;;;;;;;;;0.40;0.40;;;;;;;;5016170;28;47213;-69
2022/06/10 09:24:28;;;;;;;;;3.20;0.80;;;;;;;;5011824;28;45434;-69
2022/06/10 09:27:11;;;;;;;;;0.80;0.80;;;;;;;;5022117;28;45252;-70
2022/06/10 09:29:38;;;;;;;;;0.80;0.00;;;;;;;;5019954;28;45556;-69
2022/06/10 09:32:13;;;;;;;;;0.40;0.40;;;;;;;;5013125;28;46046;-69
2022/06/10 09:34:46;;;;;;;;;1.80;1.80;;;;;;;;5016035;28;45510;-70
2022/06/10 09:37:17;;;;;;;;;0.00;0.00;;;;;;;;5017832;28;45158;-70
2022/06/10 09:42:58;;;;;;;;;0.80;0.80;;;;;;;;5015820;28;45758;-70
2022/06/10 09:45:26;;;;;;;;;1.00;1.00;;;;;;;;5014858;28;45447;-69
2022/06/10 09:47:58;;;;;;;;;0.40;0.40;;;;;;;;5018220;28;45328;-69
2022/06/10 09:50:31;;;;;;;;;2.00;0.40;;;;;;;;5009735;28;45345;-70
2022/06/10 09:53:15;;;;;;;;;0.80;0.80;;;;;;;;5017561;28;46791;-70
2022/06/10 09:55:40;;;;;;;;;1.60;1.00;;;;;;;;5014784;28;45389;-69
2022/06/10 09:58:24;;;;;;;;;1.00;1.00;;;;;;;;5018844;28;45339;-69
2022/06/10 10:00:58;;;;;;;;;1.20;0.20;;;;;;;;5019906;28;45431;-69
2022/06/10 10:03:32;;;;;;;;;0.20;0.20;;;;;;;;5021152;28;45710;-70
2022/06/10 10:06:01;;;;;;;;;1.80;0.80;;;;;;;;5011773;28;45300;-69
2022/06/10 10:08:46;;;;;;;;;1.20;0.20;;;;;;;;5021121;28;45371;-68
2022/06/10 10:11:21;;;;;;;;;1.60;1.00;;;;;;;;5015327;28;45514;-70
2022/06/10 10:13:49;;;;;;;;;0.60;0.60;;;;;;;;5018736;28;45390;-70
2022/06/10 10:16:23;;;;;;;;;2.40;0.20;;;;;;;;5018250;28;45370;-70
2022/06/10 10:18:52;;;;;;;;;0.00;0.00;;;;;;;;5013956;28;45257;-70
2022/06/10 10:21:17;;;;;;;;;0.60;0.00;;;;;;;;5049611;28;46171;-70
2022/06/10 10:23:53;;;;;;;;;0.00;0.00;;;;;;;;5019577;28;45267;-70
2022/06/10 10:26:21;;;;;;;;;1.80;1.20;;;;;;;;5017596;28;45379;-72
2022/06/10 10:28:49;;;;;;;;;0.40;0.40;;;;;;;;5019160;28;45478;-71
2022/06/10 10:31:25;;;;;;;;;0.80;0.80;;;;;;;;5010916;28;45463;-70
2022/06/10 10:33:51;;;;;;;;;1.40;1.40;;;;;;;;5019371;28;46342;-70
2022/06/10 10:36:20;;;;;;;;;1.00;1.00;;;;;;;;5015960;28;45315;-70
2022/06/10 10:38:46;;;;;;;;;0.00;0.00;;;;;;;;5019140;28;45462;-70
2022/06/10 10:41:14;;;;;;;;;2.00;0.00;;;;;;;;5020201;28;45433;-70
2022/06/10 10:43:42;;;;;;;;;0.00;0.00;;;;;;;;5019128;28;45230;-69
2022/06/10 10:46:23;;;;;;;;;0.20;0.20;;;;;;;;5019918;28;45486;-70
2022/06/10 10:48:48;;;;;;;;;1.00;1.00;;;;;;;;5018918;28;45413;-69
2022/06/10 10:51:19;;;;;;;;;1.00;1.00;;;;;;;;5019693;28;45230;-69
2022/06/10 10:53:54;;;;;;;;;0.00;0.00;;;;;;;;5017143;28;48618;-69
2022/06/10 10:56:27;;;;;;;;;3.00;2.00;;;;;;;;5018772;28;45453;-69
2022/06/10 10:58:53;;;;;;;;;1.00;1.00;;;;;;;;5018824;28;45275;-69
2022/06/10 11:01:51;;;;;;;;;0.40;0.20;;;;;;;;5017668;28;45404;-70
2022/06/10 11:04:18;;;;;;;;;1.60;1.40;;;;;;;;5016905;28;46319;-71
2022/06/10 11:06:43;;;;;;;;;2.00;0.40;;;;;;;;5019295;28;45371;-70
2022/06/10 11:09:16;;;;;;;;;0.75;0.75;;;;;;;;5015231;28;45433;-70
2022/06/10 11:11:42;;;;;;;;;0.20;0.20;;;;;;;;5015443;28;46890;-70
2022/06/10 11:14:17;;;;;;;;;2.20;2.20;;;;;;;;5016328;28;45367;-70
2022/06/10 11:16:54;;;;;;;;;0.40;0.40;;;;;;;;5016165;28;45458;-70
2022/06/10 11:19:23;;;;;;;;;2.00;1.00;;;;;;;;5017207;28;45295;-70
2022/06/10 11:21:48;;;;;;;;;4.80;1.80;;;;;;;;5015746;28;45979;-69
2022/06/10 11:24:15;;;;;;;;;3.25;1.25;;;;;;;;5015982;28;45895;-70
2022/06/10 11:26:47;;;;;;;;;1.80;1.80;;;;;;;;5015844;28;45480;-68
2022/06/10 11:29:12;;;;;;;;;1.20;1.20;;;;;;;;5016431;28;45327;-68
2022/06/10 11:31:44;;;;;;;;;0.75;0.75;;;;;;;;5017590;28;45316;-68
2022/06/10 11:34:32;;;;;;;;;1.80;1.80;;;;;;;;5015925;28;45276;-68
2022/06/10 11:36:58;;;;;;;;;2.00;0.20;;;;;;;;5016417;28;45217;-69
2022/06/10 11:39:27;;;;;;;;;1.00;1.00;;;;;;;;5014892;28;45422;-68
2022/06/10 11:42:09;;;;;;;;;1.40;0.40;;;;;;;;5019600;28;45505;-69
2022/06/10 11:44:57;;;;;;;;;2.00;0.80;;;;;;;;5013732;28;45596;-68
2022/06/10 11:47:22;;;;;;;;;1.20;0.20;;;;;;;;5007484;28;45328;-68
2022/06/10 11:49:54;;;;;;;;;0.50;0.50;;;;;;;;5016109;28;45610;-68
2022/06/10 11:52:25;;;;;;;;;2.20;1.40;;;;;;;;5018135;28;46078;-68
2022/06/10 11:54:59;;;;;;;;;1.20;0.20;;;;;;;;5017560;28;47841;-68
2022/06/10 12:00:12;;;;;;;;;0.60;0.60;;;;;;;;5016885;28;45350;-68
2022/06/10 12:02:47;;;;;;;;;0.20;0.00;;;;;;;;5018900;28;45581;-68
2022/06/10 12:05:12;;;;;;;;;2.60;1.00;;;;;;;;5016639;28;46186;-68
2022/06/10 12:07:41;;;;;;;;;2.00;1.75;;;;;;;;5019249;28;45350;-68
2022/06/10 12:10:11;;;;;;;;;0.00;0.00;;;;;;;;5013895;28;45466;-68
2022/06/10 12:12:39;;;;;;;;;2.40;0.20;;;;;;;;5007609;28;45357;-68
2022/06/10 12:15:38;;;;;;;;;2.20;2.20;;;;;;;;5013177;28;45363;-70
2022/06/10 12:18:04;;;;;;;;;1.00;1.00;;;;;;;;5006854;28;45347;-69
2022/06/10 12:20:32;;;;;;;;;2.40;1.00;;;;;;;;5017609;28;45263;-68
2022/06/10 12:23:00;;;;;;;;;3.00;1.20;;;;;;;;5017669;28;46248;-69
2022/06/10 12:25:39;;;;;;;;;1.60;0.60;;;;;;;;5016512;28;45473;-68
2022/06/10 12:28:23;;;;;;;;;2.40;1.20;;;;;;;;5018354;28;45292;-70
2022/06/10 12:30:53;;;;;;;;;0.80;0.80;;;;;;;;5015918;28;45500;-69
2022/06/10 12:33:24;;;;;;;;;3.80;2.80;;;;;;;;5046876;28;46334;-68
2022/06/10 12:35:52;;;;;;;;;0.60;0.60;;;;;;;;5013254;28;47192;-68
2022/06/10 12:38:17;;;;;;;;;2.00;1.80;;;;;;;;5018849;28;45581;-68
2022/06/10 12:40:53;;;;;;;;;0.00;0.00;;;;;;;;5013014;28;45190;-69
2022/06/10 12:43:20;;;;;;;;;1.20;1.20;;;;;;;;5019063;28;45255;-68
2022/06/10 12:46:12;;;;;;;;;1.00;1.00;;;;;;;;5012092;28;46255;-68
2022/06/10 12:48:46;;;;;;;;;1.00;1.00;;;;;;;;4989754;28;45501;-68
2022/06/10 12:51:11;;;;;;;;;2.20;0.80;;;;;;;;5016260;28;45193;-69
2022/06/10 12:53:37;;;;;;;;;0.50;0.50;;;;;;;;5017635;28;45263;-70
2022/06/10 12:56:15;;;;;;;;;0.75;0.25;;;;;;;;5017726;28;45246;-69
2022/06/10 12:58:42;;;;;;;;;0.40;0.40;;;;;;;;5017259;28;45345;-68
2022/06/10 13:01:12;;;;;;;;;0.60;0.60;;;;;;;;5016322;28;45486;-69
2022/06/10 13:03:39;;;;;;;;;0.20;0.20;;;;;;;;5015852;28;45422;-69
2022/06/10 13:06:22;;;;;;;;;1.60;1.60;;;;;;;;4999911;28;45538;-70
2022/06/10 13:08:49;;;;;;;;;1.00;0.60;;;;;;;;4999885;28;45411;-69
2022/06/10 13:11:28;;;;;;;;;4.40;2.00;;;;;;;;5000490;28;45754;-69
2022/06/10 13:14:13;;;;;;;;;0.00;0.00;;;;;;;;5008809;28;45331;-69
2022/06/10 13:16:40;;;;;;;;;1.00;0.80;;;;;;;;5009950;28;46013;-69
2022/06/10 13:19:22;;;;;;;;;2.20;1.80;;;;;;;;5003415;28;45441;-68
2022/06/10 13:21:48;;;;;;;;;1.60;1.00;;;;;;;;5026764;28;45608;-68
2022/06/10 13:24:15;;;;;;;;;0.25;0.25;;;;;;;;5012982;28;45626;-68
2022/06/10 13:26:40;;;;;;;;;1.00;1.00;;;;;;;;5015542;28;45442;-68
2022/06/10 13:29:17;;;;;;;;;1.00;1.00;;;;;;;;5013855;28;45383;-68
2022/06/10 13:31:49;;;;;;;;;2.00;2.00;;;;;;;;5013338;28;45307;-69
2022/06/10 13:34:20;;;;;;;;;1.40;0.20;;;;;;;;5015203;28;45430;-69
2022/06/10 13:36:51;;;;;;;;;3.40;1.80;;;;;;;;5018225;28;46609;-69
2022/06/10 13:39:23;;;;;;;;;1.80;0.80;;;;;;;;5016106;28;45237;-69
2022/06/10 13:41:54;;;;;;;;;2.40;0.20;;;;;;;;5018873;28;45639;-68
2022/06/10 13:44:25;;;;;;;;;1.20;0.40;;;;;;;;5015220;28;45476;-68
2022/06/10 13:46:52;;;;;;;;;1.40;1.40;;;;;;;;5012280;28;46077;-72
2022/06/10 13:49:18;;;;;;;;;0.60;0.20;;;;;;;;5019725;28;45773;-69
2022/06/10 13:51:49;;;;;;;;;1.00;1.00;;;;;;;;5019075;28;45304;-69
2022/06/10 13:54:22;;;;;;;;;0.20;0.20;;;;;;;;5017063;28;45660;-68
2022/06/10 13:56:48;;;;;;;;;0.80;0.80;;;;;;;;5014078;28;48105;-69
2022/06/10 13:59:30;;;;;;;;;5.00;1.00;;;;;;;;5005608;28;45387;-69
2022/06/10 14:01:57;;;;;;;;;1.20;1.20;;;;;;;;5003709;28;45273;-69
2022/06/10 14:04:25;;;;;;;;;0.60;0.60;;;;;;;;5005325;28;45595;-69
2022/06/10 14:06:52;;;;;;;;;1.80;1.80;;;;;;;;5013160;28;46226;-69
2022/06/10 14:09:22;;;;;;;;;2.80;1.20;;;;;;;;5019365;28;45443;-69
2022/06/10 14:12:17;;;;;;;;;0.40;0.40;;;;;;;;5019880;28;45346;-68
2022/06/10 14:14:43;;;;;;;;;0.20;0.20;;;;;;;;5019603;28;45828;-68
2022/06/10 14:17:11;;;;;;;;;1.00;1.00;;;;;;;;5020272;28;46025;-69
2022/06/10 14:19:56;;;;;;;;;2.00;1.00;;;;;;;;5015945;28;45443;-69
2022/06/10 14:22:26;;;;;;;;;0.20;0.20;;;;;;;;5020887;28;45223;-68
2022/06/10 14:25:10;;;;;;;;;1.00;0.60;;;;;;;;5012407;28;45221;-69
2022/06/10 14:27:35;;;;;;;;;1.40;1.20;;;;;;;;5012579;28;46017;-68
2022/06/10 14:30:03;;;;;;;;;1.50;1.50;;;;;;;;5014945;28;45324;-68
2022/06/10 14:32:34;;;;;;;;;2.00;2.00;;;;;;;;5017593;28;45430;-68
2022/06/10 14:35:01;;;;;;;;;0.00;0.00;;;;;;;;5018141;28;46334;-67
2022/06/10 14:37:31;;;;;;;;;2.00;2.00;;;;;;;;5017807;28;45525;-68
2022/06/10 14:40:09;;;;;;;;;1.40;1.20;;;;;;;;5016109;28;45379;-68
2022/06/10 14:42:34;;;;;;;;;1.80;1.40;;;;;;;;5018227;28;45301;-68
2022/06/10 14:44:59;;;;;;;;;1.00;1.00;;;;;;;;5012463;28;45415;-67
2022/06/10 14:47:29;;;;;;;;;2.75;1.75;;;;;;;;5018210;28;45982;-68
2022/06/10 14:49:55;;;;;;;;;1.00;1.00;;;;;;;;5013020;28;45278;-68
2022/06/10 14:52:40;;;;;;;;;2.00;1.00;;;;;;;;5018186;28;45450;-68
2022/06/10 14:55:13;;;;;;;;;2.75;2.75;;;;;;;;5013263;28;45304;-68
2022/06/10 14:57:38;;;;;;;;;2.50;1.50;;;;;;;;5018706;28;45494;-68
2022/06/10 15:00:11;;;;;;;;;4.00;1.50;;;;;;;;5016679;28;45380;-68
2022/06/10 15:02:36;;;;;;;;;0.25;0.25;;;;;;;;5018782;28;45551;-68
2022/06/10 15:07:46;;;;;;;;;2.40;1.60;;;;;;;;5019699;28;45328;-68
2022/06/10 15:10:13;;;;;;;;;2.00;2.00;;;;;;;;5015045;28;45320;-68
2022/06/10 15:12:39;;;;;;;;;2.00;1.75;;;;;;;;5019972;28;45687;-68
2022/06/10 15:15:06;;;;;;;;;2.25;2.25;;;;;;;;5015185;28;45476;-69
2022/06/10 15:17:31;;;;;;;;;1.40;1.40;;;;;;;;5017742;28;46854;-69
2022/06/10 15:19:57;;;;;;;;;2.25;1.00;;;;;;;;5014889;28;45264;-68